createdAt,value
2018-11-04T00:02:35.234Z,-0.46
2018-11-04T00:12:35.250Z,-0.48
2018-11-04T00:22:35.250Z,-0.57
2018-11-04T00:32:35.243Z,-0.71
2018-11-04T00:42:35.305Z,-0.79
2018-11-04T00:52:35.254Z,-0.81
2018-11-04T01:02:35.246Z,-0.73
2018-11-04T01:12:35.204Z,-0.63
2018-11-04T01:22:35.257Z,-0.68
2018-11-04T01:32:35.186Z,-0.78
2018-11-04T01:42:35.221Z,-0.80
2018-11-04T01:52:35.276Z,-0.63
2018-11-04T02:02:35.223Z,-0.59
2018-11-04T02:12:35.262Z,-0.58
2018-11-04T02:22:35.250Z,-0.58
2018-11-04T02:32:35.312Z,-0.63
2018-11-04T02:42:35.240Z,-0.64
2018-11-04T02:52:35.244Z,-0.55
2018-11-04T03:02:35.271Z,-0.58
2018-11-04T03:12:35.370Z,-0.55
2018-11-04T03:22:35.185Z,-0.50
2018-11-04T03:32:35.320Z,-0.64
2018-11-04T03:42:35.333Z,-0.67
2018-11-04T03:52:36.187Z,-0.63
2018-11-04T04:02:35.265Z,-0.53
2018-11-04T04:12:35.191Z,-0.50
2018-11-04T04:22:35.184Z,-0.59
2018-11-04T04:32:35.163Z,-0.61
2018-11-04T04:42:35.242Z,-0.53
2018-11-04T04:52:35.221Z,-0.57
2018-11-04T05:02:35.169Z,-0.61
2018-11-04T05:12:35.234Z,-0.64
2018-11-04T05:22:35.214Z,-0.87
2018-11-04T05:32:35.136Z,-0.69
2018-11-04T05:42:35.171Z,-0.60
2018-11-04T05:52:35.186Z,-0.67
2018-11-04T06:02:35.207Z,-0.67
2018-11-04T06:12:35.148Z,-0.75
2018-11-04T06:22:35.137Z,-0.84
2018-11-04T06:32:35.159Z,-0.85
2018-11-04T06:42:35.180Z,-0.86
2018-11-04T06:52:35.205Z,-0.68
2018-11-04T07:02:35.195Z,-0.65
2018-11-04T07:12:35.146Z,-0.41
2018-11-04T07:22:35.142Z,0.35
2018-11-04T07:32:35.243Z,2.25
2018-11-04T07:42:35.183Z,3.50
2018-11-04T07:52:35.665Z,4.84
2018-11-04T08:02:35.119Z,5.82
2018-11-04T08:12:35.188Z,5.41
2018-11-04T08:22:35.133Z,5.18
2018-11-04T08:32:35.213Z,6.01
2018-11-04T08:42:35.187Z,6.92
2018-11-04T08:52:35.375Z,7.37
2018-11-04T09:02:36.583Z,8.25
2018-11-04T09:12:42.628Z,9.62
2018-11-04T09:22:35.321Z,10.48
2018-11-04T09:32:39.308Z,11.87
2018-11-04T09:42:35.118Z,12.08
2018-11-04T09:52:35.285Z,13.61
2018-11-04T10:02:35.361Z,14.56
2018-11-04T10:12:35.134Z,15.37
2018-11-04T10:22:35.295Z,15.76
2018-11-04T10:32:35.246Z,15.67
2018-11-04T10:42:35.190Z,15.16
2018-11-04T10:52:35.201Z,15.02
2018-11-04T11:02:35.247Z,14.96
2018-11-04T11:12:35.291Z,14.93
2018-11-04T11:22:35.235Z,15.50
2018-11-04T11:32:35.193Z,15.96
2018-11-04T11:42:35.235Z,16.55
2018-11-04T11:52:35.235Z,17.17
2018-11-04T12:02:35.168Z,16.30
2018-11-04T12:12:35.190Z,16.87
2018-11-04T12:22:35.198Z,16.16
2018-11-04T12:32:35.254Z,16.04
2018-11-04T12:42:35.406Z,16.56
2018-11-04T12:52:35.207Z,16.17
2018-11-04T13:02:35.228Z,16.58
2018-11-04T13:12:35.198Z,17.42
2018-11-04T13:22:35.284Z,17.76
2018-11-04T13:32:36.141Z,17.09
2018-11-04T13:42:35.316Z,17.21
2018-11-04T13:52:35.209Z,17.76
2018-11-04T14:02:36.220Z,18.36
2018-11-04T14:12:35.294Z,18.51
2018-11-04T14:22:35.409Z,17.18
2018-11-04T14:32:35.221Z,16.89
2018-11-04T14:42:35.600Z,17.36
2018-11-04T14:52:35.262Z,16.86
2018-11-04T15:02:35.243Z,16.36
2018-11-04T15:12:35.318Z,16.42
2018-11-04T15:22:35.288Z,14.89
2018-11-04T15:32:35.292Z,13.98
2018-11-04T15:42:35.259Z,12.84
2018-11-04T15:52:35.482Z,11.78
2018-11-04T16:02:35.280Z,11.31
2018-11-04T16:12:35.578Z,10.89
2018-11-04T16:22:35.251Z,10.20
2018-11-04T16:32:35.269Z,9.62
2018-11-04T16:42:35.249Z,9.13
2018-11-04T16:52:35.405Z,8.72
2018-11-04T17:02:35.582Z,8.31
2018-11-04T17:12:35.292Z,8.18
2018-11-04T17:22:35.286Z,8.35
2018-11-04T17:32:35.211Z,8.23
2018-11-04T17:42:35.250Z,8.00
2018-11-04T17:52:35.280Z,7.66
2018-11-04T18:02:35.273Z,7.79
2018-11-04T18:12:35.201Z,7.54
2018-11-04T18:22:35.257Z,7.26
2018-11-04T18:32:35.220Z,7.08
2018-11-04T18:42:35.468Z,6.84
2018-11-04T18:52:35.346Z,6.63
2018-11-04T19:02:35.318Z,6.51
2018-11-04T19:12:35.284Z,6.48
2018-11-04T19:22:35.259Z,6.27
2018-11-04T19:32:35.204Z,6.26
2018-11-04T19:42:35.910Z,6.00
2018-11-04T19:52:35.598Z,5.86
2018-11-04T20:02:36.077Z,5.61
2018-11-04T20:12:35.257Z,5.40
2018-11-04T20:22:35.229Z,5.30
2018-11-04T20:32:35.252Z,5.34
2018-11-04T20:42:35.252Z,5.35
2018-11-04T20:52:35.167Z,5.18
2018-11-04T21:02:36.391Z,4.99
2018-11-04T21:12:35.253Z,5.01
2018-11-04T21:22:35.280Z,4.92
2018-11-04T21:32:35.240Z,4.82
2018-11-04T21:42:35.503Z,4.75
2018-11-04T21:52:35.279Z,4.98
2018-11-04T22:02:35.331Z,5.03
2018-11-04T22:12:35.223Z,4.97
2018-11-04T22:22:35.221Z,4.75
2018-11-04T22:32:35.241Z,4.51
2018-11-04T22:42:35.188Z,4.35
2018-11-04T22:52:35.168Z,4.09
2018-11-04T23:02:35.213Z,4.22
2018-11-04T23:12:36.192Z,4.12
2018-11-04T23:22:36.658Z,4.27
2018-11-04T23:32:42.501Z,4.20
2018-11-04T23:42:35.277Z,4.07
2018-11-04T23:52:35.278Z,3.67
